sensor_id;sensor_type;location;lat;lon;timestamp;pressure;altitude;pressure_sealevel;temperature;humidity
14612;BME280;7392;52.078;11.650;2023-09-30T00:00:15;101488.56;;;14.59;100.00
14612;BME280;7392;52.078;11.650;2023-09-30T00:02:43;101492.13;;;14.57;100.00
14612;BME280;7392;52.078;11.650;2023-09-30T00:05:11;101493.03;;;14.53;100.00
14612;BME280;7392;52.078;11.650;2023-09-30T00:07:41;101493.03;;;14.50;100.00
14612;BME280;7392;52.078;11.650;2023-09-30T00:10:09;101496.63;;;14.47;100.00
14612;BME280;7392;52.078;11.650;2023-09-30T00:12:38;101499.31;;;14.44;100.00
14612;BME280;7392;52.078;11.650;2023-09-30T00:15:06;101500.19;;;14.43;100.00
14612;BME280;7392;52.078;11.650;2023-09-30T00:17:34;101506.47;;;14.40;100.00
14612;BME280;7392;52.078;11.650;2023-09-30T00:20:02;101497.59;;;14.35;100.00
14612;BME280;7392;52.078;11.650;2023-09-30T00:22:30;101516.31;;;14.34;100.00
14612;BME280;7392;52.078;11.650;2023-09-30T00:24:58;101513.63;;;14.32;100.00
14612;BME280;7392;52.078;11.650;2023-09-30T00:27:26;101510.09;;;14.27;100.00
14612;BME280;7392;52.078;11.650;2023-09-30T00:29:55;101512.78;;;14.24;100.00
14612;BME280;7392;52.078;11.650;2023-09-30T00:32:23;101511.91;;;14.20;100.00
14612;BME280;7392;52.078;11.650;2023-09-30T00:34:51;101517.25;;;14.17;100.00
14612;BME280;7392;52.078;11.650;2023-09-30T00:37:20;101511.97;;;14.14;100.00
14612;BME280;7392;52.078;11.650;2023-09-30T00:39:50;101524.41;;;14.11;100.00
14612;BME280;7392;52.078;11.650;2023-09-30T00:42:18;101526.22;;;14.07;100.00
14612;BME280;7392;52.078;11.650;2023-09-30T00:44:47;101531.59;;;14.04;100.00
14612;BME280;7392;52.078;11.650;2023-09-30T00:47:16;101531.59;;;14.02;100.00
14612;BME280;7392;52.078;11.650;2023-09-30T00:49:44;101537.81;;;13.98;100.00
14612;BME280;7392;52.078;11.650;2023-09-30T00:52:12;101548.50;;;13.97;100.00
14612;BME280;7392;52.078;11.650;2023-09-30T00:54:41;101559.22;;;13.94;100.00
14612;BME280;7392;52.078;11.650;2023-09-30T00:57:10;101559.22;;;13.91;100.00
14612;BME280;7392;52.078;11.650;2023-09-30T00:59:40;101568.13;;;13.88;100.00
14612;BME280;7392;52.078;11.650;2023-09-30T01:02:08;101565.47;;;13.85;100.00
14612;BME280;7392;52.078;11.650;2023-09-30T01:04:37;101577.06;;;13.82;100.00
14612;BME280;7392;52.078;11.650;2023-09-30T01:07:09;101574.38;;;13.79;100.00
14612;BME280;7392;52.078;11.650;2023-09-30T01:09:40;101577.97;;;13.77;100.00
14612;BME280;7392;52.078;11.650;2023-09-30T01:12:08;101567.28;;;13.74;100.00
14612;BME280;7392;52.078;11.650;2023-09-30T01:14:36;101576.19;;;13.73;100.00
14612;BME280;7392;52.078;11.650;2023-09-30T01:17:05;101579.75;;;13.69;100.00
14612;BME280;7392;52.078;11.650;2023-09-30T01:19:35;101587.75;;;13.67;100.00
14612;BME280;7392;52.078;11.650;2023-09-30T01:22:04;101588.66;;;13.64;100.00
14612;BME280;7392;52.078;11.650;2023-09-30T01:24:39;101585.97;;;13.63;100.00
14612;BME280;7392;52.078;11.650;2023-09-30T01:27:08;101594.00;;;13.61;100.00
14612;BME280;7392;52.078;11.650;2023-09-30T01:29:36;101589.56;;;13.57;100.00
14612;BME280;7392;52.078;11.650;2023-09-30T01:32:05;101601.13;;;13.56;100.00
14612;BME280;7392;52.078;11.650;2023-09-30T01:34:35;101594.00;;;13.52;100.00
14612;BME280;7392;52.078;11.650;2023-09-30T01:37:04;101593.13;;;13.50;100.00
14612;BME280;7392;52.078;11.650;2023-09-30T01:39:32;101598.44;;;13.45;100.00
14612;BME280;7392;52.078;11.650;2023-09-30T01:42:00;101597.56;;;13.45;100.00
14612;BME280;7392;52.078;11.650;2023-09-30T01:44:32;101605.56;;;13.42;100.00
14612;BME280;7392;52.078;11.650;2023-09-30T01:47:00;101607.34;;;13.38;100.00
14612;BME280;7392;52.078;11.650;2023-09-30T01:49:28;101616.25;;;13.37;100.00
14612;BME280;7392;52.078;11.650;2023-09-30T01:51:56;101614.47;;;13.36;100.00
14612;BME280;7392;52.078;11.650;2023-09-30T01:54:26;101604.69;;;13.32;100.00
14612;BME280;7392;52.078;11.650;2023-09-30T01:56:54;101606.44;;;13.30;100.00
14612;BME280;7392;52.078;11.650;2023-09-30T01:59:22;101596.66;;;13.27;100.00
14612;BME280;7392;52.078;11.650;2023-09-30T02:01:50;101596.66;;;13.24;100.00
14612;BME280;7392;52.078;11.650;2023-09-30T02:04:18;101602.00;;;13.23;100.00
14612;BME280;7392;52.078;11.650;2023-09-30T02:06:46;101609.09;;;13.21;100.00
14612;BME280;7392;52.078;11.650;2023-09-30T02:09:14;101605.56;;;13.20;100.00
14612;BME280;7392;52.078;11.650;2023-09-30T02:11:44;101620.66;;;13.18;100.00
14612;BME280;7392;52.078;11.650;2023-09-30T02:14:12;101616.22;;;13.17;100.00
14612;BME280;7392;52.078;11.650;2023-09-30T02:16:40;101608.22;;;13.14;100.00
14612;BME280;7392;52.078;11.650;2023-09-30T02:19:08;101610.88;;;13.13;100.00
14612;BME280;7392;52.078;11.650;2023-09-30T02:21:37;101621.53;;;13.09;100.00
14612;BME280;7392;52.078;11.650;2023-09-30T02:24:06;101620.66;;;13.07;100.00
14612;BME280;7392;52.078;11.650;2023-09-30T02:26:34;101633.09;;;13.05;100.00
14612;BME280;7392;52.078;11.650;2023-09-30T02:29:03;101632.19;;;13.02;100.00
14612;BME280;7392;52.078;11.650;2023-09-30T02:31:34;101641.06;;;12.99;100.00
14612;BME280;7392;52.078;11.650;2023-09-30T02:34:02;101648.19;;;12.99;100.00
14612;BME280;7392;52.078;11.650;2023-09-30T02:36:30;101643.72;;;12.98;100.00
14612;BME280;7392;52.078;11.650;2023-09-30T02:38:58;101649.97;;;12.94;100.00
14612;BME280;7392;52.078;11.650;2023-09-30T02:41:27;101654.41;;;12.93;100.00
14612;BME280;7392;52.078;11.650;2023-09-30T02:43:55;101661.50;;;12.91;100.00
14612;BME280;7392;52.078;11.650;2023-09-30T02:46:25;101657.06;;;12.88;100.00
14612;BME280;7392;52.078;11.650;2023-09-30T02:48:54;101657.03;;;12.85;100.00
14612;BME280;7392;52.078;11.650;2023-09-30T02:51:21;101655.25;;;12.84;100.00
14612;BME280;7392;52.078;11.650;2023-09-30T02:53:50;101652.59;;;12.80;100.00
14612;BME280;7392;52.078;11.650;2023-09-30T02:56:18;101650.78;;;12.77;100.00
14612;BME280;7392;52.078;11.650;2023-09-30T02:58:46;101654.34;;;12.73;100.00
14612;BME280;7392;52.078;11.650;2023-09-30T03:01:14;101662.31;;;12.68;100.00
14612;BME280;7392;52.078;11.650;2023-09-30T03:03:45;101662.31;;;12.67;100.00
14612;BME280;7392;52.078;11.650;2023-09-30T03:06:13;101661.41;;;12.62;100.00
14612;BME280;7392;52.078;11.650;2023-09-30T03:08:42;101665.84;;;12.60;100.00
14612;BME280;7392;52.078;11.650;2023-09-30T03:11:09;101670.25;;;12.54;100.00
14612;BME280;7392;52.078;11.650;2023-09-30T03:13:37;101672.91;;;12.53;100.00
14612;BME280;7392;52.078;11.650;2023-09-30T03:16:07;101664.91;;;12.45;100.00
14612;BME280;7392;52.078;11.650;2023-09-30T03:18:34;101665.72;;;12.37;100.00
14612;BME280;7392;52.078;11.650;2023-09-30T03:21:13;101660.41;;;12.32;100.00
14612;BME280;7392;52.078;11.650;2023-09-30T03:23:41;101656.81;;;12.27;100.00
14612;BME280;7392;52.078;11.650;2023-09-30T03:26:09;101654.13;;;12.24;100.00
14612;BME280;7392;52.078;11.650;2023-09-30T03:28:37;101658.56;;;12.20;100.00
14612;BME280;7392;52.078;11.650;2023-09-30T03:31:05;101659.41;;;12.18;100.00
14612;BME280;7392;52.078;11.650;2023-09-30T03:33:34;101657.63;;;12.15;100.00
14612;BME280;7392;52.078;11.650;2023-09-30T03:36:03;101660.28;;;12.12;100.00
14612;BME280;7392;52.078;11.650;2023-09-30T03:38:33;101664.72;;;12.10;100.00
14612;BME280;7392;52.078;11.650;2023-09-30T03:41:02;101656.66;;;12.04;100.00
14612;BME280;7392;52.078;11.650;2023-09-30T03:43:30;101664.63;;;12.01;100.00
14612;BME280;7392;52.078;11.650;2023-09-30T03:46:01;101669.94;;;11.96;100.00
14612;BME280;7392;52.078;11.650;2023-09-30T03:48:28;101672.56;;;11.91;100.00
14612;BME280;7392;52.078;11.650;2023-09-30T03:50:56;101672.50;;;11.88;100.00
14612;BME280;7392;52.078;11.650;2023-09-30T03:53:26;101670.69;;;11.83;100.00
14612;BME280;7392;52.078;11.650;2023-09-30T03:55:55;101667.13;;;11.79;100.00
14612;BME280;7392;52.078;11.650;2023-09-30T03:58:23;101665.28;;;11.73;100.00
14612;BME280;7392;52.078;11.650;2023-09-30T04:00:53;101669.69;;;11.70;100.00
14612;BME280;7392;52.078;11.650;2023-09-30T04:03:21;101666.16;;;11.68;100.00
14612;BME280;7392;52.078;11.650;2023-09-30T04:05:50;101661.72;;;11.68;100.00
14612;BME280;7392;52.078;11.650;2023-09-30T04:08:17;101660.81;;;11.68;100.00
14612;BME280;7392;52.078;11.650;2023-09-30T04:10:46;101655.50;;;11.68;100.00
14612;BME280;7392;52.078;11.650;2023-09-30T04:13:14;101651.97;;;11.67;100.00
14612;BME280;7392;52.078;11.650;2023-09-30T04:15:43;101656.41;;;11.67;100.00
14612;BME280;7392;52.078;11.650;2023-09-30T04:18:15;101666.13;;;11.66;100.00
14612;BME280;7392;52.078;11.650;2023-09-30T04:20:43;101663.47;;;11.66;100.00
14612;BME280;7392;52.078;11.650;2023-09-30T04:23:11;101662.59;;;11.66;100.00
14612;BME280;7392;52.078;11.650;2023-09-30T04:25:39;101649.28;;;11.64;100.00
14612;BME280;7392;52.078;11.650;2023-09-30T04:28:11;101660.78;;;11.62;100.00
14612;BME280;7392;52.078;11.650;2023-09-30T04:30:39;101662.53;;;11.61;100.00
14612;BME280;7392;52.078;11.650;2023-09-30T04:33:07;101658.09;;;11.58;100.00
14612;BME280;7392;52.078;11.650;2023-09-30T04:35:37;101663.41;;;11.57;100.00
14612;BME280;7392;52.078;11.650;2023-09-30T04:38:17;101674.03;;;11.54;100.00
14612;BME280;7392;52.078;11.650;2023-09-30T04:40:45;101673.13;;;11.52;100.00
14612;BME280;7392;52.078;11.650;2023-09-30T04:43:16;101676.66;;;11.51;100.00
14612;BME280;7392;52.078;11.650;2023-09-30T04:45:44;101687.25;;;11.48;100.00
14612;BME280;7392;52.078;11.650;2023-09-30T04:48:13;101690.81;;;11.47;100.00
14612;BME280;7392;52.078;11.650;2023-09-30T04:50:41;101688.09;;;11.40;100.00
14612;BME280;7392;52.078;11.650;2023-09-30T04:53:09;101690.72;;;11.39;100.00
14612;BME280;7392;52.078;11.650;2023-09-30T04:55:36;101681.81;;;11.35;100.00
14612;BME280;7392;52.078;11.650;2023-09-30T04:58:04;101690.69;;;11.33;100.00
14612;BME280;7392;52.078;11.650;2023-09-30T05:00:34;101700.41;;;11.32;100.00
14612;BME280;7392;52.078;11.650;2023-09-30T05:03:02;101705.72;;;11.29;100.00
14612;BME280;7392;52.078;11.650;2023-09-30T05:05:31;101698.63;;;11.28;100.00
14612;BME280;7392;52.078;11.650;2023-09-30T05:08:00;101702.13;;;11.27;100.00
14612;BME280;7392;52.078;11.650;2023-09-30T05:10:29;101708.34;;;11.25;100.00
14612;BME280;7392;52.078;11.650;2023-09-30T05:12:56;101706.53;;;11.23;100.00
14612;BME280;7392;52.078;11.650;2023-09-30T05:15:25;101722.47;;;11.22;100.00
14612;BME280;7392;52.078;11.650;2023-09-30T05:17:57;101720.69;;;11.19;100.00
14612;BME280;7392;52.078;11.650;2023-09-30T05:20:25;101718.88;;;11.18;100.00
14612;BME280;7392;52.078;11.650;2023-09-30T05:22:53;101726.84;;;11.17;100.00
14612;BME280;7392;52.078;11.650;2023-09-30T05:25:20;101732.16;;;11.15;100.00
14612;BME280;7392;52.078;11.650;2023-09-30T05:27:52;101739.19;;;11.10;100.00
14612;BME280;7392;52.078;11.650;2023-09-30T05:30:20;101731.16;;;11.04;100.00
14612;BME280;7392;52.078;11.650;2023-09-30T05:32:48;101737.31;;;11.01;100.00
14612;BME280;7392;52.078;11.650;2023-09-30T05:35:20;101741.69;;;10.96;100.00
14612;BME280;7392;52.078;11.650;2023-09-30T05:37:49;101755.84;;;10.94;100.00
14612;BME280;7392;52.078;11.650;2023-09-30T05:40:19;101769.13;;;10.94;100.00
14612;BME280;7392;52.078;11.650;2023-09-30T05:42:52;101771.81;;;10.95;100.00
14612;BME280;7392;52.078;11.650;2023-09-30T05:45:22;101771.84;;;10.98;100.00
14612;BME280;7392;52.078;11.650;2023-09-30T05:47:51;101766.56;;;11.01;100.00
14612;BME280;7392;52.078;11.650;2023-09-30T05:50:22;101755.09;;;11.06;100.00
14612;BME280;7392;52.078;11.650;2023-09-30T05:52:54;101751.59;;;11.10;100.00
14612;BME280;7392;52.078;11.650;2023-09-30T05:55:23;101756.09;;;11.14;100.00
14612;BME280;7392;52.078;11.650;2023-09-30T05:57:52;101749.91;;;11.18;100.00
14612;BME280;7392;52.078;11.650;2023-09-30T06:00:21;101751.72;;;11.22;100.00
14612;BME280;7392;52.078;11.650;2023-09-30T06:02:49;101758.00;;;11.26;100.00
14612;BME280;7392;52.078;11.650;2023-09-30T06:05:18;101768.63;;;11.29;100.00
14612;BME280;7392;52.078;11.650;2023-09-30T06:07:48;101756.25;;;11.32;100.00
14612;BME280;7392;52.078;11.650;2023-09-30T06:10:16;101758.09;;;11.36;100.00
14612;BME280;7392;52.078;11.650;2023-09-30T06:12:46;101753.69;;;11.40;100.00
14612;BME280;7392;52.078;11.650;2023-09-30T06:15:14;101759.06;;;11.45;100.00
14612;BME280;7392;52.078;11.650;2023-09-30T06:17:42;101753.75;;;11.48;100.00
14612;BME280;7392;52.078;11.650;2023-09-30T06:20:11;101755.59;;;11.52;100.00
14612;BME280;7392;52.078;11.650;2023-09-30T06:22:45;101766.28;;;11.55;100.00
14612;BME280;7392;52.078;11.650;2023-09-30T06:25:15;101773.38;;;11.57;100.00
14612;BME280;7392;52.078;11.650;2023-09-30T06:27:43;101771.63;;;11.59;100.00
14612;BME280;7392;52.078;11.650;2023-09-30T06:30:12;101776.13;;;11.64;100.00
14612;BME280;7392;52.078;11.650;2023-09-30T06:32:42;101773.50;;;11.67;100.00
14612;BME280;7392;52.078;11.650;2023-09-30T06:35:11;101769.06;;;11.69;100.00
14612;BME280;7392;52.078;11.650;2023-09-30T06:37:39;101761.97;;;11.71;100.00
14612;BME280;7392;52.078;11.650;2023-09-30T06:40:09;101770.00;;;11.74;100.00
14612;BME280;7392;52.078;11.650;2023-09-30T06:42:40;101768.25;;;11.76;100.00
14612;BME280;7392;52.078;11.650;2023-09-30T06:45:10;101769.16;;;11.79;100.00
14612;BME280;7392;52.078;11.650;2023-09-30T06:47:40;101790.47;;;11.83;100.00
14612;BME280;7392;52.078;11.650;2023-09-30T06:50:10;101781.63;;;11.87;100.00
14612;BME280;7392;52.078;11.650;2023-09-30T06:52:40;101775.44;;;11.88;100.00
14612;BME280;7392;52.078;11.650;2023-09-30T06:55:09;101765.75;;;11.91;100.00
14612;BME280;7392;52.078;11.650;2023-09-30T06:57:42;101778.19;;;11.97;100.00
14612;BME280;7392;52.078;11.650;2023-09-30T07:00:11;101782.69;;;12.01;100.00
14612;BME280;7392;52.078;11.650;2023-09-30T07:02:40;101785.41;;;12.09;100.00
14612;BME280;7392;52.078;11.650;2023-09-30T07:05:10;101789.00;;;12.15;100.00
14612;BME280;7392;52.078;11.650;2023-09-30T07:07:39;101793.50;;;12.23;100.00
14612;BME280;7392;52.078;11.650;2023-09-30T07:10:08;101802.44;;;12.31;100.00
14612;BME280;7392;52.078;11.650;2023-09-30T07:12:37;101806.03;;;12.38;100.00
14612;BME280;7392;52.078;11.650;2023-09-30T07:15:08;101814.09;;;12.44;100.00
14612;BME280;7392;52.078;11.650;2023-09-30T07:17:36;101815.03;;;12.49;100.00
14612;BME280;7392;52.078;11.650;2023-09-30T07:20:06;101820.38;;;12.52;100.00
14612;BME280;7392;52.078;11.650;2023-09-30T07:22:36;101824.81;;;12.54;100.00
14612;BME280;7392;52.078;11.650;2023-09-30T07:25:18;101834.59;;;12.56;100.00
14612;BME280;7392;52.078;11.650;2023-09-30T07:27:46;101831.06;;;12.58;100.00
14612;BME280;7392;52.078;11.650;2023-09-30T07:30:15;101844.38;;;12.60;100.00
14612;BME280;7392;52.078;11.650;2023-09-30T07:32:44;101843.50;;;12.64;100.00
14612;BME280;7392;52.078;11.650;2023-09-30T07:35:12;101843.56;;;12.68;100.00
14612;BME280;7392;52.078;11.650;2023-09-30T07:37:42;101840.94;;;12.75;100.00
14612;BME280;7392;52.078;11.650;2023-09-30T07:40:11;101846.31;;;12.82;100.00
14612;BME280;7392;52.078;11.650;2023-09-30T07:42:39;101841.03;;;12.91;100.00
14612;BME280;7392;52.078;11.650;2023-09-30T07:45:08;101840.19;;;12.99;100.00
14612;BME280;7392;52.078;11.650;2023-09-30T07:47:39;101847.34;;;13.07;100.00
14612;BME280;7392;52.078;11.650;2023-09-30T07:50:08;101839.38;;;13.15;100.00
14612;BME280;7392;52.078;11.650;2023-09-30T07:52:39;101849.19;;;13.22;100.00
14612;BME280;7392;52.078;11.650;2023-09-30T07:55:09;101850.13;;;13.29;100.00
14612;BME280;7392;52.078;11.650;2023-09-30T07:57:39;101851.06;;;13.36;100.00
14612;BME280;7392;52.078;11.650;2023-09-30T08:00:09;101852.88;;;13.46;100.00
14612;BME280;7392;52.078;11.650;2023-09-30T08:02:43;101864.44;;;13.54;100.00
14612;BME280;7392;52.078;11.650;2023-09-30T08:05:12;101852.03;;;13.62;100.00
14612;BME280;7392;52.078;11.650;2023-09-30T08:07:40;101857.41;;;13.70;100.00
14612;BME280;7392;52.078;11.650;2023-09-30T08:10:08;101872.53;;;13.80;100.00
14612;BME280;7392;52.078;11.650;2023-09-30T08:12:40;101859.19;;;13.87;100.00
14612;BME280;7392;52.078;11.650;2023-09-30T08:15:09;101866.34;;;13.94;100.00
14612;BME280;7392;52.078;11.650;2023-09-30T08:17:39;101859.22;;;14.03;100.00
14612;BME280;7392;52.078;11.650;2023-09-30T08:20:09;101856.56;;;14.13;100.00
14612;BME280;7392;52.078;11.650;2023-09-30T08:22:37;101856.56;;;14.20;100.00
14612;BME280;7392;52.078;11.650;2023-09-30T08:25:06;101855.66;;;14.31;100.00
14612;BME280;7392;52.078;11.650;2023-09-30T08:27:36;101857.44;;;14.39;100.00
14612;BME280;7392;52.078;11.650;2023-09-30T08:30:05;101851.19;;;14.50;100.00
14612;BME280;7392;52.078;11.650;2023-09-30T08:32:34;101861.03;;;14.62;100.00
14612;BME280;7392;52.078;11.650;2023-09-30T08:35:02;101857.44;;;14.72;100.00
14612;BME280;7392;52.078;11.650;2023-09-30T08:37:32;101871.69;;;14.80;100.00
14612;BME280;7392;52.078;11.650;2023-09-30T08:40:00;101876.13;;;14.89;100.00
14612;BME280;7392;52.078;11.650;2023-09-30T08:42:28;101873.44;;;14.98;100.00
14612;BME280;7392;52.078;11.650;2023-09-30T08:45:00;101872.50;;;15.11;100.00
14612;BME280;7392;52.078;11.650;2023-09-30T08:47:28;101872.47;;;15.22;100.00
14612;BME280;7392;52.078;11.650;2023-09-30T08:49:58;101875.09;;;15.34;100.00
14612;BME280;7392;52.078;11.650;2023-09-30T08:52:34;101877.72;;;15.45;100.00
14612;BME280;7392;52.078;11.650;2023-09-30T08:55:07;101879.44;;;15.59;100.00
14612;BME280;7392;52.078;11.650;2023-09-30T08:57:37;101887.41;;;15.71;100.00
14612;BME280;7392;52.078;11.650;2023-09-30T09:00:07;101891.84;;;15.84;100.00
14612;BME280;7392;52.078;11.650;2023-09-30T09:02:38;101889.13;;;15.94;100.00
14612;BME280;7392;52.078;11.650;2023-09-30T09:05:07;101883.69;;;16.00;100.00
14612;BME280;7392;52.078;11.650;2023-09-30T09:07:36;101880.06;;;16.10;100.00
14612;BME280;7392;52.078;11.650;2023-09-30T09:10:05;101879.94;;;16.22;100.00
14612;BME280;7392;52.078;11.650;2023-09-30T09:12:35;101881.66;;;16.33;100.00
14612;BME280;7392;52.078;11.650;2023-09-30T09:15:05;101896.75;;;16.44;100.00
14612;BME280;7392;52.078;11.650;2023-09-30T09:17:41;101879.72;;;16.52;100.00
14612;BME280;7392;52.078;11.650;2023-09-30T09:20:11;101888.56;;;16.61;100.00
14612;BME280;7392;52.078;11.650;2023-09-30T09:22:43;101885.75;;;16.74;100.00
14612;BME280;7392;52.078;11.650;2023-09-30T09:25:11;101893.72;;;16.88;100.00
14612;BME280;7392;52.078;11.650;2023-09-30T09:27:38;101886.44;;;16.97;100.00
14612;BME280;7392;52.078;11.650;2023-09-30T09:30:17;101887.28;;;17.04;99.85
14612;BME280;7392;52.078;11.650;2023-09-30T09:32:53;101882.72;;;17.12;99.30
14612;BME280;7392;52.078;11.650;2023-09-30T09:35:22;101885.28;;;17.22;98.71
14612;BME280;7392;52.078;11.650;2023-09-30T09:38:00;101888.75;;;17.30;97.54
14612;BME280;7392;52.078;11.650;2023-09-30T09:40:29;101896.75;;;17.36;96.53
14612;BME280;7392;52.078;11.650;2023-09-30T09:42:59;101899.28;;;17.48;96.77
14612;BME280;7392;52.078;11.650;2023-09-30T09:45:33;101900.06;;;17.56;94.97
14612;BME280;7392;52.078;11.650;2023-09-30T09:48:01;101902.59;;;17.69;94.80
14612;BME280;7392;52.078;11.650;2023-09-30T09:50:31;101893.47;;;17.81;93.99
14612;BME280;7392;52.078;11.650;2023-09-30T09:53:01;101902.31;;;17.92;92.66
14612;BME280;7392;52.078;11.650;2023-09-30T09:55:29;101903.03;;;18.03;91.35
14612;BME280;7392;52.078;11.650;2023-09-30T09:57:58;101902.00;;;18.10;91.03
14612;BME280;7392;52.078;11.650;2023-09-30T10:00:26;101905.44;;;18.20;90.40
14612;BME280;7392;52.078;11.650;2023-09-30T10:02:56;101909.06;;;18.19;90.18
14612;BME280;7392;52.078;11.650;2023-09-30T10:05:25;101913.41;;;18.29;89.98
14612;BME280;7392;52.078;11.650;2023-09-30T10:07:56;101912.31;;;18.41;89.11
14612;BME280;7392;52.078;11.650;2023-09-30T10:10:27;101903.28;;;18.44;86.67
14612;BME280;7392;52.078;11.650;2023-09-30T10:12:55;101903.31;;;18.42;86.07
14612;BME280;7392;52.078;11.650;2023-09-30T10:15:38;101896.84;;;18.53;86.11
14612;BME280;7392;52.078;11.650;2023-09-30T10:18:10;101894.91;;;18.62;85.23
14612;BME280;7392;52.078;11.650;2023-09-30T10:20:43;101897.72;;;18.55;83.06
14612;BME280;7392;52.078;11.650;2023-09-30T10:23:22;101897.72;;;18.53;82.03
14612;BME280;7392;52.078;11.650;2023-09-30T10:25:53;101895.78;;;18.63;82.66
14612;BME280;7392;52.078;11.650;2023-09-30T10:28:38;101891.06;;;18.77;82.30
14612;BME280;7392;52.078;11.650;2023-09-30T10:31:11;101898.03;;;18.89;81.80
14612;BME280;7392;52.078;11.650;2023-09-30T10:34:18;101888.13;;;18.93;80.68
14612;BME280;7392;52.078;11.650;2023-09-30T10:36:48;101900.41;;;19.06;81.10
14612;BME280;7392;52.078;11.650;2023-09-30T10:39:53;101899.53;;;19.04;80.62
14612;BME280;7392;52.078;11.650;2023-09-30T10:42:46;101899.56;;;19.02;81.60
14612;BME280;7392;52.078;11.650;2023-09-30T10:45:42;101903.84;;;19.13;80.98
14612;BME280;7392;52.078;11.650;2023-09-30T10:48:33;101890.56;;;19.05;79.63
14612;BME280;7392;52.078;11.650;2023-09-30T10:51:13;101890.72;;;18.96;79.32
14612;BME280;7392;52.078;11.650;2023-09-30T10:53:44;101898.00;;;18.91;79.83
14612;BME280;7392;52.078;11.650;2023-09-30T10:56:14;101892.59;;;18.92;80.07
14612;BME280;7392;52.078;11.650;2023-09-30T10:58:46;101885.22;;;19.02;80.19
14612;BME280;7392;52.078;11.650;2023-09-30T11:01:16;101890.63;;;19.02;78.71
14612;BME280;7392;52.078;11.650;2023-09-30T11:03:47;101885.19;;;19.05;77.94
14612;BME280;7392;52.078;11.650;2023-09-30T11:06:17;101885.91;;;19.15;79.01
14612;BME280;7392;52.078;11.650;2023-09-30T11:08:56;101877.50;;;19.30;79.63
14612;BME280;7392;52.078;11.650;2023-09-30T11:11:33;101879.00;;;19.42;79.39
14612;BME280;7392;52.078;11.650;2023-09-30T11:14:03;101880.53;;;19.55;78.90
14612;BME280;7392;52.078;11.650;2023-09-30T11:16:42;101873.97;;;19.69;78.36
14612;BME280;7392;52.078;11.650;2023-09-30T11:19:12;101873.69;;;19.81;78.05
14612;BME280;7392;52.078;11.650;2023-09-30T11:21:39;101892.31;;;19.93;76.87
14612;BME280;7392;52.078;11.650;2023-09-30T11:24:08;101878.53;;;20.06;75.58
14612;BME280;7392;52.078;11.650;2023-09-30T11:26:37;101886.44;;;20.13;73.31
14612;BME280;7392;52.078;11.650;2023-09-30T11:29:10;101880.91;;;20.20;71.31
14612;BME280;7392;52.078;11.650;2023-09-30T11:31:38;101872.59;;;20.27;70.02
14612;BME280;7392;52.078;11.650;2023-09-30T11:34:06;101867.88;;;20.37;68.16
14612;BME280;7392;52.078;11.650;2023-09-30T11:36:35;101866.88;;;20.41;67.54
14612;BME280;7392;52.078;11.650;2023-09-30T11:39:04;101860.31;;;20.51;67.60
14612;BME280;7392;52.078;11.650;2023-09-30T11:41:33;101859.97;;;20.65;67.66
14612;BME280;7392;52.078;11.650;2023-09-30T11:44:03;101860.31;;;20.86;68.49
14612;BME280;7392;52.078;11.650;2023-09-30T11:46:50;101853.38;;;21.08;68.65
14612;BME280;7392;52.078;11.650;2023-09-30T11:49:29;101859.03;;;21.30;68.84
14612;BME280;7392;52.078;11.650;2023-09-30T11:52:00;101850.56;;;21.43;66.38
14612;BME280;7392;52.078;11.650;2023-09-30T11:54:29;101849.28;;;21.56;65.86
14612;BME280;7392;52.078;11.650;2023-09-30T11:56:58;101852.34;;;21.74;65.83
14612;BME280;7392;52.078;11.650;2023-09-30T11:59:26;101858.28;;;21.87;64.17
14612;BME280;7392;52.078;11.650;2023-09-30T12:01:56;101858.84;;;21.96;63.61
14612;BME280;7392;52.078;11.650;2023-09-30T12:04:39;101847.84;;;22.02;62.46
14612;BME280;7392;52.078;11.650;2023-09-30T12:07:07;101856.31;;;22.18;62.91
14612;BME280;7392;52.078;11.650;2023-09-30T12:09:36;101851.41;;;22.31;62.40
14612;BME280;7392;52.078;11.650;2023-09-30T12:12:07;101855.47;;;22.45;61.85
14612;BME280;7392;52.078;11.650;2023-09-30T12:14:37;101850.19;;;22.67;62.51
14612;BME280;7392;52.078;11.650;2023-09-30T12:17:06;101850.41;;;22.86;62.22
14612;BME280;7392;52.078;11.650;2023-09-30T12:19:39;101843.41;;;23.04;61.35
14612;BME280;7392;52.078;11.650;2023-09-30T12:22:08;101844.16;;;23.09;59.03
14612;BME280;7392;52.078;11.650;2023-09-30T12:24:37;101836.16;;;23.06;58.89
14612;BME280;7392;52.078;11.650;2023-09-30T12:27:07;101834.59;;;22.98;58.56
14612;BME280;7392;52.078;11.650;2023-09-30T12:29:34;101834.31;;;22.81;57.21
14612;BME280;7392;52.078;11.650;2023-09-30T12:32:06;101834.28;;;22.83;57.87
14612;BME280;7392;52.078;11.650;2023-09-30T12:34:35;101827.69;;;22.90;58.41
14612;BME280;7392;52.078;11.650;2023-09-30T12:37:03;101828.94;;;23.06;58.51
14612;BME280;7392;52.078;11.650;2023-09-30T12:39:31;101831.22;;;23.17;57.67
14612;BME280;7392;52.078;11.650;2023-09-30T12:42:00;101839.69;;;23.31;57.89
14612;BME280;7392;52.078;11.650;2023-09-30T12:44:28;101841.31;;;23.37;56.70
14612;BME280;7392;52.078;11.650;2023-09-30T12:46:56;101841.25;;;23.39;56.41
14612;BME280;7392;52.078;11.650;2023-09-30T12:49:25;101839.78;;;23.30;56.16
14612;BME280;7392;52.078;11.650;2023-09-30T12:51:53;101842.28;;;23.34;57.60
14612;BME280;7392;52.078;11.650;2023-09-30T12:54:22;101827.22;;;23.27;56.77
14612;BME280;7392;52.078;11.650;2023-09-30T12:56:51;101833.66;;;23.25;56.92